createdAt,value
2022-10-28T00:01:23.376Z,99596.53
2022-10-28T00:03:54.073Z,99635.97
2022-10-28T00:06:33.865Z,99649.69
2022-10-28T00:09:02.047Z,99679.53
2022-10-28T00:11:32.729Z,99616.66
2022-10-28T00:14:07.049Z,99660.91
2022-10-28T00:16:37.146Z,99648.53
2022-10-28T00:19:06.714Z,99624.31
2022-10-28T00:21:38.527Z,99662.69
2022-10-28T00:24:07.360Z,99608.03
2022-10-28T00:26:38.362Z,99662.50
2022-10-28T00:29:15.501Z,99631.25
2022-10-28T00:31:43.324Z,99616.94
2022-10-28T00:34:14.213Z,99619.91
2022-10-28T00:36:43.560Z,99645.03
2022-10-28T00:39:23.636Z,99627.75
2022-10-28T00:41:54.366Z,99634.50
2022-10-28T00:44:43.350Z,99677.50
2022-10-28T00:47:52.737Z,99677.16
2022-10-28T00:50:49.027Z,99674.81
2022-10-28T00:53:30.766Z,99628.50
2022-10-28T00:56:01.506Z,99638.56
2022-10-28T00:58:29.574Z,99642.50
2022-10-28T01:00:56.666Z,99623.53
2022-10-28T01:03:25.023Z,99657.88
2022-10-28T01:05:53.505Z,99662.63
2022-10-28T01:08:20.940Z,99698.19
2022-10-28T01:11:03.005Z,99672.25
2022-10-28T01:14:26.613Z,99657.50
2022-10-28T01:17:30.551Z,99600.75
2022-10-28T01:20:21.146Z,99628.50
2022-10-28T01:23:01.124Z,99573.28
2022-10-28T01:26:13.842Z,99601.13
2022-10-28T01:29:18.893Z,99621.84
2022-10-28T01:32:04.458Z,99611.00
2022-10-28T01:35:22.667Z,99636.31
2022-10-28T01:38:11.397Z,99591.97
2022-10-28T01:41:15.622Z,99634.19
2022-10-28T01:44:19.689Z,99652.81
2022-10-28T01:46:58.378Z,99615.19
2022-10-28T01:49:42.625Z,99627.66
2022-10-28T01:52:14.766Z,99629.41
2022-10-28T01:54:47.187Z,99661.31
2022-10-28T01:57:18.165Z,99588.91
2022-10-28T01:59:47.143Z,99612.88
2022-10-28T02:02:17.329Z,99581.16
2022-10-28T02:04:44.594Z,99645.66
2022-10-28T02:07:11.916Z,99602.72
2022-10-28T02:09:38.842Z,99600.22
2022-10-28T02:12:25.124Z,99629.03
2022-10-28T02:15:18.410Z,99642.06
2022-10-28T02:18:20.878Z,99633.22
2022-10-28T02:21:10.952Z,99579.13
2022-10-28T02:23:53.155Z,99624.03
2022-10-28T02:26:29.390Z,99636.72
2022-10-28T02:29:47.584Z,99630.44
2022-10-28T02:32:21.911Z,99632.75
2022-10-28T02:34:54.147Z,99669.91
2022-10-28T02:37:34.374Z,99574.41
2022-10-28T02:40:07.043Z,99636.50
2022-10-28T02:42:40.394Z,99586.22
2022-10-28T02:45:50.212Z,99573.53
2022-10-28T02:48:43.563Z,99600.66
2022-10-28T02:51:37.309Z,99608.91
2022-10-28T02:54:19.472Z,99594.53
2022-10-28T02:57:13.538Z,99625.13
2022-10-28T02:59:40.897Z,99595.25
2022-10-28T03:02:08.876Z,99563.50
2022-10-28T03:04:35.898Z,99593.34
2022-10-28T03:07:02.834Z,99570.84
2022-10-28T03:09:29.953Z,99605.41
2022-10-28T03:11:56.938Z,99581.56
2022-10-28T03:14:23.858Z,99615.38
2022-10-28T03:16:50.762Z,99620.56
2022-10-28T03:19:17.992Z,99553.75
2022-10-28T03:21:44.972Z,99629.91
2022-10-28T03:24:12.201Z,99572.59
2022-10-28T03:26:39.187Z,99571.34
2022-10-28T03:29:06.419Z,99591.16
2022-10-28T03:31:33.636Z,99554.84
2022-10-28T03:34:00.732Z,99576.03
2022-10-28T03:36:27.848Z,99590.22
2022-10-28T03:38:54.879Z,99585.41
2022-10-28T03:41:21.788Z,99557.50
2022-10-28T03:43:48.860Z,99589.63
2022-10-28T03:46:16.101Z,99527.84
2022-10-28T03:48:43.212Z,99527.44
2022-10-28T03:51:10.399Z,99583.03
2022-10-28T03:53:37.491Z,99558.88
2022-10-28T03:56:05.166Z,99564.28
2022-10-28T03:58:33.503Z,99588.03
2022-10-28T04:01:02.347Z,99600.59
2022-10-28T04:03:29.420Z,99599.91
2022-10-28T04:05:56.500Z,99566.13
2022-10-28T04:08:23.456Z,99541.72
2022-10-28T04:10:50.579Z,99569.56
2022-10-28T04:13:17.833Z,99596.16
2022-10-28T04:15:45.079Z,99549.91
2022-10-28T04:18:12.292Z,99547.22
2022-10-28T04:20:40.055Z,99559.13
2022-10-28T04:23:07.464Z,99581.69
2022-10-28T04:25:34.609Z,99612.22
2022-10-28T04:28:01.572Z,99599.22
2022-10-28T04:30:28.456Z,99548.03
2022-10-28T04:32:55.595Z,99562.31
2022-10-28T04:35:23.435Z,99549.53
2022-10-28T04:37:50.972Z,99537.53
2022-10-28T04:40:18.235Z,99577.41
2022-10-28T04:42:47.252Z,99577.88
2022-10-28T04:45:15.626Z,99583.03
2022-10-28T04:47:42.973Z,99575.22
2022-10-28T04:50:10.174Z,99567.09
2022-10-28T04:52:37.266Z,99596.22
2022-10-28T04:55:04.714Z,99587.50
2022-10-28T04:57:32.939Z,99534.03
2022-10-28T05:00:00.741Z,99516.19
2022-10-28T05:02:27.726Z,99504.53
2022-10-28T05:04:54.929Z,99557.06
2022-10-28T05:07:23.599Z,99539.66
2022-10-28T05:09:50.689Z,99518.72
2022-10-28T05:12:17.909Z,99558.16
2022-10-28T05:14:44.780Z,99556.16
2022-10-28T05:17:12.242Z,99529.91
2022-10-28T05:19:39.182Z,99531.38
2022-10-28T05:22:06.139Z,99538.72
2022-10-28T05:24:33.365Z,99525.91
2022-10-28T05:27:00.914Z,99524.22
2022-10-28T05:29:33.052Z,99578.13
2022-10-28T05:32:00.772Z,99598.66
2022-10-28T05:34:27.881Z,99562.03
2022-10-28T05:36:54.944Z,99546.34
2022-10-28T05:39:21.876Z,99545.34
2022-10-28T05:41:48.934Z,99578.22
2022-10-28T05:44:15.898Z,99548.78
2022-10-28T05:46:43.152Z,99539.13
2022-10-28T05:49:10.042Z,99514.47
2022-10-28T05:51:37.243Z,99500.59
2022-10-28T05:54:04.519Z,99527.63
2022-10-28T05:56:31.601Z,99514.13
2022-10-28T05:58:58.580Z,99532.13
2022-10-28T06:01:25.704Z,99527.19
2022-10-28T06:03:52.682Z,99545.09
2022-10-28T06:06:19.939Z,99529.84
2022-10-28T06:08:47.017Z,99545.50
2022-10-28T06:11:12.607Z,99573.09
2022-10-28T06:13:39.534Z,99588.19
2022-10-28T06:16:07.454Z,99565.69
2022-10-28T06:18:35.586Z,99563.69
2022-10-28T06:21:04.250Z,99573.97
2022-10-28T06:23:31.362Z,99561.00
2022-10-28T06:26:00.760Z,99599.78
2022-10-28T06:28:28.176Z,99587.34
2022-10-28T06:31:05.750Z,99563.56
2022-10-28T06:33:33.138Z,99565.84
2022-10-28T06:36:00.768Z,99568.19
2022-10-28T06:38:28.281Z,99580.19
2022-10-28T06:40:58.469Z,99567.06
2022-10-28T06:43:25.739Z,99624.31
2022-10-28T06:45:55.431Z,99622.06
2022-10-28T06:48:24.782Z,99615.25
2022-10-28T06:50:54.969Z,99585.84
2022-10-28T06:53:22.160Z,99605.59
2022-10-28T06:55:57.342Z,99626.38
2022-10-28T06:58:25.620Z,99608.91
2022-10-28T07:00:52.699Z,99648.63
2022-10-28T07:03:20.065Z,99663.00
2022-10-28T07:05:49.337Z,99630.06
2022-10-28T07:08:16.914Z,99667.84
2022-10-28T07:10:44.008Z,99643.16
2022-10-28T07:13:11.276Z,99648.00
2022-10-28T07:15:38.188Z,99656.72
2022-10-28T07:18:05.307Z,99632.47
2022-10-28T07:20:33.140Z,99656.75
2022-10-28T07:23:02.321Z,99636.84
2022-10-28T07:25:30.948Z,99643.56
2022-10-28T07:28:01.537Z,99680.13
2022-10-28T07:30:29.061Z,99632.88
2022-10-28T07:32:58.558Z,99671.81
2022-10-28T07:35:25.554Z,99644.03
2022-10-28T07:37:52.502Z,99642.81
2022-10-28T07:40:21.581Z,99648.41
2022-10-28T07:42:48.552Z,99686.91
2022-10-28T07:45:16.319Z,99655.97
2022-10-28T07:47:44.355Z,99712.28
2022-10-28T07:50:11.977Z,99701.13
2022-10-28T07:52:39.074Z,99724.81
2022-10-28T07:55:07.908Z,99712.84
2022-10-28T07:57:35.450Z,99692.28
2022-10-28T08:00:04.026Z,99705.69
2022-10-28T08:02:38.063Z,99706.47
2022-10-28T08:05:06.064Z,99702.50
2022-10-28T08:07:36.205Z,99718.97
2022-10-28T08:10:06.989Z,99688.38
2022-10-28T08:12:34.119Z,99737.69
2022-10-28T08:15:02.581Z,99717.34
2022-10-28T08:17:29.847Z,99711.84
2022-10-28T08:19:56.838Z,99693.56
2022-10-28T08:22:23.806Z,99731.34
2022-10-28T08:24:50.852Z,99718.19
2022-10-28T08:27:17.744Z,99721.78
2022-10-28T08:29:44.715Z,99747.38
2022-10-28T08:32:12.030Z,99735.25
2022-10-28T08:34:42.478Z,99726.47
2022-10-28T08:37:10.956Z,99744.50
2022-10-28T08:39:38.119Z,99757.06
2022-10-28T08:42:33.843Z,99766.31
2022-10-28T08:45:40.736Z,99768.47
2022-10-28T08:48:37.525Z,99764.88
2022-10-28T08:51:45.631Z,99742.31
2022-10-28T08:54:27.420Z,99753.31
2022-10-28T08:56:57.432Z,99744.94
2022-10-28T08:59:35.593Z,99772.88
2022-10-28T09:02:26.113Z,99774.25
2022-10-28T09:05:22.662Z,99794.94
2022-10-28T09:07:50.762Z,99780.19
2022-10-28T09:10:24.591Z,99779.47
2022-10-28T09:13:13.374Z,99756.22
2022-10-28T09:16:38.062Z,99774.78
2022-10-28T09:19:23.055Z,99792.59
2022-10-28T09:22:05.313Z,99767.06
2022-10-28T09:25:04.864Z,99773.16
2022-10-28T09:27:46.792Z,99793.94
2022-10-28T09:30:36.788Z,99799.31
2022-10-28T09:33:40.919Z,99798.84
2022-10-28T09:36:16.806Z,99810.13
2022-10-28T09:38:45.970Z,99780.19
2022-10-28T09:41:24.885Z,99782.16
2022-10-28T09:43:57.063Z,99774.72
2022-10-28T09:46:31.951Z,99805.38
2022-10-28T09:49:12.400Z,99777.88
2022-10-28T09:52:15.345Z,99772.94
2022-10-28T09:54:53.066Z,99783.03
2022-10-28T09:57:22.255Z,99767.56
2022-10-28T09:59:49.293Z,99791.16
2022-10-28T10:02:31.719Z,99773.16
2022-10-28T10:05:01.189Z,99770.25
2022-10-28T10:07:44.569Z,99770.84
2022-10-28T10:10:23.369Z,99774.19
2022-10-28T10:12:53.281Z,99738.09
2022-10-28T10:15:32.714Z,99768.72
2022-10-28T10:18:05.088Z,99754.31
2022-10-28T10:20:53.767Z,99788.00
2022-10-28T10:23:34.630Z,99755.53
2022-10-28T10:26:16.194Z,99754.09
2022-10-28T10:28:51.521Z,99774.91
2022-10-28T10:31:23.003Z,99744.38
2022-10-28T10:33:53.542Z,99757.88
2022-10-28T10:36:28.221Z,99769.06
2022-10-28T10:38:58.771Z,99773.38
2022-10-28T10:41:45.383Z,99790.84
2022-10-28T10:44:21.839Z,99796.78
2022-10-28T10:47:05.827Z,99781.59
2022-10-28T10:49:35.818Z,99794.66
2022-10-28T10:52:23.790Z,99793.88
2022-10-28T10:55:03.596Z,99784.88
2022-10-28T10:57:31.796Z,99770.66
2022-10-28T10:59:59.043Z,99775.09
2022-10-28T11:02:37.254Z,99759.59
2022-10-28T11:05:09.191Z,99783.31
2022-10-28T11:07:39.979Z,99779.09
2022-10-28T11:10:19.114Z,99775.84
2022-10-28T11:13:01.270Z,99781.44
2022-10-28T11:15:30.929Z,99775.44
2022-10-28T11:18:17.070Z,99777.94
2022-10-28T11:20:52.115Z,99800.97
2022-10-28T11:23:50.743Z,99795.72
2022-10-28T11:26:20.033Z,99771.66
2022-10-28T11:29:13.929Z,99780.16
2022-10-28T11:32:02.648Z,99760.06
2022-10-28T11:34:59.151Z,99766.72
2022-10-28T11:37:38.774Z,99769.69
2022-10-28T11:40:30.395Z,99772.53
2022-10-28T11:43:06.073Z,99757.88
2022-10-28T11:46:13.460Z,99788.41
2022-10-28T11:48:58.469Z,99744.19
2022-10-28T11:52:01.147Z,99763.09
2022-10-28T11:55:05.740Z,99760.22
2022-10-28T11:58:05.056Z,99767.84
2022-10-28T12:01:08.431Z,99776.91
2022-10-28T12:03:56.362Z,99746.91
2022-10-28T12:06:47.433Z,99739.97
2022-10-28T12:09:24.707Z,99752.81
2022-10-28T12:12:38.384Z,99744.25
2022-10-28T12:15:14.905Z,99746.47
2022-10-28T12:18:06.780Z,99710.88
2022-10-28T12:20:51.005Z,99714.53
2022-10-28T12:23:22.028Z,99701.16
2022-10-28T12:25:55.322Z,99667.41
2022-10-28T12:28:44.869Z,99670.38
2022-10-28T12:31:34.448Z,99723.56
2022-10-28T12:34:19.970Z,99672.63
2022-10-28T12:37:02.685Z,99718.47
2022-10-28T12:39:55.695Z,99710.66
2022-10-28T12:42:38.830Z,99708.44
2022-10-28T12:45:15.630Z,99677.66
2022-10-28T12:48:16.876Z,99674.78
2022-10-28T12:50:53.520Z,99698.25
2022-10-28T12:53:46.824Z,99707.22
2022-10-28T12:56:34.630Z,99694.09
2022-10-28T12:59:13.341Z,99720.91
2022-10-28T13:01:42.849Z,99750.66
2022-10-28T13:04:12.964Z,99744.09
2022-10-28T13:07:04.112Z,99712.13
2022-10-28T13:09:56.107Z,99706.31
2022-10-28T13:12:59.911Z,99690.22
2022-10-28T13:16:04.844Z,99674.38
2022-10-28T13:19:13.092Z,99707.91
2022-10-28T13:22:25.146Z,99689.78
2022-10-28T13:25:42.608Z,99713.31
2022-10-28T13:28:16.840Z,99708.03
2022-10-28T13:31:02.390Z,99716.84
2022-10-28T13:33:32.227Z,99712.13
2022-10-28T13:36:25.501Z,99703.19
2022-10-28T13:39:03.316Z,99685.00
2022-10-28T13:41:42.087Z,99713.38
2022-10-28T13:44:29.747Z,99750.88
2022-10-28T13:47:05.491Z,99719.50
2022-10-28T13:49:35.157Z,99701.88
2022-10-28T13:52:04.637Z,99730.91
2022-10-28T13:54:39.013Z,99703.16
2022-10-28T13:57:30.973Z,99708.34
2022-10-28T14:00:00.390Z,99703.50
2022-10-28T14:02:40.097Z,99707.13
2022-10-28T14:05:17.696Z,99684.19
2022-10-28T14:07:58.311Z,99691.91
2022-10-28T14:10:28.855Z,99691.44
2022-10-28T14:13:04.929Z,99692.03
2022-10-28T14:15:38.384Z,99689.53
2022-10-28T14:18:42.579Z,99663.47
2022-10-28T14:21:10.648Z,99660.19
2022-10-28T14:23:49.956Z,99671.66
2022-10-28T14:26:17.288Z,99680.28
2022-10-28T14:28:44.131Z,99673.97
2022-10-28T14:31:11.471Z,99679.47
2022-10-28T14:33:53.287Z,99653.59
2022-10-28T14:36:20.236Z,99655.94
2022-10-28T14:39:03.574Z,99668.19
2022-10-28T14:42:27.669Z,99667.84
2022-10-28T14:45:18.872Z,99653.25
2022-10-28T14:48:22.179Z,99686.94
2022-10-28T14:50:52.411Z,99682.50
2022-10-28T14:53:33.439Z,99694.41
2022-10-28T14:56:30.748Z,99709.44
2022-10-28T14:59:30.001Z,99711.16
2022-10-28T15:02:11.030Z,99714.75
2022-10-28T15:04:41.039Z,99703.88
2022-10-28T15:07:14.446Z,99693.28
2022-10-28T15:09:44.046Z,99711.22
2022-10-28T15:12:17.846Z,99734.06
2022-10-28T15:14:55.955Z,99719.13
2022-10-28T15:17:25.996Z,99696.28
2022-10-28T15:19:59.597Z,99662.34
2022-10-28T15:22:30.677Z,99662.84
2022-10-28T15:25:15.986Z,99675.56
2022-10-28T15:27:45.936Z,99626.38
2022-10-28T15:30:23.918Z,99638.47
2022-10-28T15:32:53.078Z,99682.56
2022-10-28T15:35:35.662Z,99702.94
2022-10-28T15:38:28.262Z,99684.28
2022-10-28T15:40:55.775Z,99672.78
2022-10-28T15:43:29.875Z,99686.25
2022-10-28T15:46:16.037Z,99649.03
2022-10-28T15:48:43.202Z,99690.31
2022-10-28T15:51:19.142Z,99666.84
2022-10-28T15:53:57.172Z,99697.50
2022-10-28T15:56:27.641Z,99678.66
2022-10-28T15:59:09.155Z,99671.78
2022-10-28T16:01:39.502Z,99628.94
2022-10-28T16:04:18.878Z,99664.66
2022-10-28T16:06:46.923Z,99626.13
2022-10-28T16:09:47.818Z,99641.34
2022-10-28T16:12:22.758Z,99611.59
2022-10-28T16:14:59.439Z,99669.94
2022-10-28T16:17:33.888Z,99639.88
2022-10-28T16:20:23.921Z,99616.84
2022-10-28T16:22:51.714Z,99690.59
2022-10-28T16:25:21.907Z,99615.78
2022-10-28T16:27:51.146Z,99636.66
2022-10-28T16:30:18.483Z,99649.03
2022-10-28T16:32:51.673Z,99665.31
2022-10-28T16:35:21.860Z,99677.16
2022-10-28T16:37:54.666Z,99637.22
2022-10-28T16:40:50.948Z,99670.41
2022-10-28T16:43:23.379Z,99668.06
2022-10-28T16:45:53.068Z,99676.88
2022-10-28T16:48:23.566Z,99654.56
2022-10-28T16:51:19.948Z,99630.41
2022-10-28T16:53:48.397Z,99629.56
2022-10-28T16:56:16.874Z,99582.72
2022-10-28T16:58:44.117Z,99567.78
2022-10-28T17:01:11.902Z,99680.66
2022-10-28T17:03:39.077Z,99643.50
2022-10-28T17:06:06.509Z,99712.50
2022-10-28T17:11:20.618Z,99638.66
2022-10-28T17:13:48.016Z,99686.69
2022-10-28T17:16:14.981Z,99640.28
2022-10-28T17:18:43.595Z,99670.41
2022-10-28T17:21:10.593Z,99669.19
2022-10-28T17:23:39.955Z,99684.16
2022-10-28T17:26:06.849Z,99681.25
2022-10-28T17:28:33.919Z,99588.03
2022-10-28T17:31:06.283Z,99685.94
2022-10-28T17:33:33.743Z,99649.88
2022-10-28T17:36:06.203Z,99644.69
2022-10-28T17:38:33.417Z,99686.41
2022-10-28T17:41:00.562Z,99643.44
2022-10-28T17:43:27.561Z,99673.88
2022-10-28T17:46:04.466Z,99688.44
2022-10-28T17:48:31.414Z,99690.13
2022-10-28T17:50:58.354Z,99686.03
2022-10-28T17:53:25.319Z,99607.38
2022-10-28T17:56:00.181Z,99655.81
2022-10-28T17:58:28.067Z,99633.31
2022-10-28T18:00:59.653Z,99632.97
2022-10-28T18:03:27.744Z,99695.25
2022-10-28T18:05:55.597Z,99695.00
2022-10-28T18:08:23.173Z,99655.63
2022-10-28T18:10:55.192Z,99596.41
2022-10-28T18:13:31.193Z,99657.16
2022-10-28T18:16:05.042Z,99661.09
2022-10-28T18:18:32.259Z,99628.50
2022-10-28T18:20:59.154Z,99686.16
2022-10-28T18:23:26.208Z,99741.16
2022-10-28T18:26:05.394Z,99629.22
2022-10-28T18:28:35.495Z,99697.91
2022-10-28T18:31:07.611Z,99626.03
2022-10-28T18:33:35.568Z,99682.72
2022-10-28T18:36:33.978Z,99733.28
2022-10-28T18:39:02.146Z,99713.44
2022-10-28T18:41:30.857Z,99681.22
2022-10-28T18:44:01.160Z,99667.38
2022-10-28T18:46:29.703Z,99733.97
2022-10-28T18:51:27.801Z,99711.97
2022-10-28T18:53:56.505Z,99736.69
2022-10-28T18:56:29.210Z,99745.84
2022-10-28T18:58:58.333Z,99684.00
2022-10-28T19:01:28.127Z,99706.19
2022-10-28T19:04:01.588Z,99665.88
2022-10-28T19:06:32.625Z,99707.88
2022-10-28T19:09:03.173Z,99676.81
2022-10-28T19:11:32.111Z,99707.09
2022-10-28T19:14:02.323Z,99710.09
2022-10-28T19:16:33.501Z,99728.25
2022-10-28T19:19:03.528Z,99694.38
2022-10-28T19:21:30.690Z,99713.34
2022-10-28T19:23:57.973Z,99695.88
2022-10-28T19:26:25.375Z,99704.19
2022-10-28T19:28:52.415Z,99679.13
2022-10-28T19:31:24.018Z,99689.47
2022-10-28T19:33:53.735Z,99717.19
2022-10-28T19:36:30.675Z,99697.44
2022-10-28T19:38:58.330Z,99659.19
2022-10-28T19:41:30.121Z,99660.91
2022-10-28T19:44:00.785Z,99660.28
2022-10-28T19:46:31.378Z,99662.75
2022-10-28T19:49:01.041Z,99646.91
2022-10-28T19:51:31.706Z,99604.69
2022-10-28T19:54:01.978Z,99648.63
2022-10-28T19:56:31.623Z,99624.97
2022-10-28T19:59:01.083Z,99633.22
2022-10-28T20:01:31.983Z,99666.97
2022-10-28T20:04:00.112Z,99673.69
2022-10-28T20:06:32.706Z,99681.78
2022-10-28T20:09:00.093Z,99668.66
2022-10-28T20:11:31.802Z,99622.59
2022-10-28T20:14:03.175Z,99692.78
2022-10-28T20:16:32.006Z,99639.16
2022-10-28T20:18:59.087Z,99665.47
2022-10-28T20:21:29.534Z,99690.38
2022-10-28T20:23:57.668Z,99667.88
2022-10-28T20:26:31.367Z,99671.00
2022-10-28T20:28:59.585Z,99670.25
2022-10-28T20:31:29.149Z,99676.16
2022-10-28T20:33:59.640Z,99696.78
2022-10-28T20:36:31.727Z,99665.47
2022-10-28T20:39:01.803Z,99690.84
2022-10-28T20:41:32.887Z,99699.56
2022-10-28T20:44:01.385Z,99699.59
2022-10-28T20:46:28.543Z,99711.06
2022-10-28T20:48:56.641Z,99702.69
2022-10-28T20:51:25.908Z,99685.66
2022-10-28T20:53:53.497Z,99712.22
2022-10-28T20:56:26.898Z,99674.56
2022-10-28T20:58:55.607Z,99700.31
2022-10-28T21:01:29.118Z,99682.09
2022-10-28T21:04:03.213Z,99691.22
2022-10-28T21:06:30.763Z,99699.56
2022-10-28T21:08:58.683Z,99685.28
2022-10-28T21:11:28.270Z,99698.78
2022-10-28T21:14:01.113Z,99688.38
2022-10-28T21:16:30.136Z,99695.56
2022-10-28T21:18:59.246Z,99682.88
2022-10-28T21:21:27.039Z,99721.75
2022-10-28T21:23:54.121Z,99694.72
2022-10-28T21:26:21.343Z,99670.97
2022-10-28T21:28:52.615Z,99702.31
2022-10-28T21:31:21.052Z,99676.59
2022-10-28T21:36:20.595Z,99697.22
2022-10-28T21:38:47.583Z,99695.66
2022-10-28T21:41:20.655Z,99721.81
2022-10-28T21:43:51.030Z,99664.31
2022-10-28T21:46:19.695Z,99695.63
2022-10-28T21:48:47.069Z,99694.06
2022-10-28T21:51:16.436Z,99710.72
2022-10-28T21:53:44.733Z,99686.50
2022-10-28T21:56:19.027Z,99686.91
2022-10-28T21:58:49.382Z,99697.25
2022-10-28T22:01:23.728Z,99687.72
2022-10-28T22:03:54.717Z,99692.88
2022-10-28T22:06:22.719Z,99702.81
2022-10-28T22:08:52.201Z,99703.16
2022-10-28T22:11:22.227Z,99717.44
2022-10-28T22:14:00.260Z,99706.69
2022-10-28T22:16:29.594Z,99744.75
2022-10-28T22:18:58.602Z,99759.00
2022-10-28T22:21:29.006Z,99743.81
2022-10-28T22:23:56.094Z,99736.22
2022-10-28T22:26:29.307Z,99714.47
2022-10-28T22:28:56.708Z,99726.34
2022-10-28T22:31:28.582Z,99726.38
2022-10-28T22:33:56.945Z,99737.06
2022-10-28T22:36:26.821Z,99730.28
2022-10-28T22:38:54.467Z,99729.50
2022-10-28T22:41:27.533Z,99713.72
2022-10-28T22:43:59.997Z,99757.31
2022-10-28T22:46:30.850Z,99743.06
2022-10-28T22:48:58.030Z,99713.78
2022-10-28T22:51:25.438Z,99773.16
2022-10-28T22:53:52.573Z,99738.22
2022-10-28T22:56:22.803Z,99740.53
2022-10-28T22:58:58.757Z,99688.31
2022-10-28T23:01:28.285Z,99725.69
2022-10-28T23:03:55.839Z,99745.16
2022-10-28T23:06:26.066Z,99746.31
2022-10-28T23:08:53.742Z,99714.59
2022-10-28T23:11:22.961Z,99737.59
2022-10-28T23:13:54.671Z,99765.59
2022-10-28T23:16:23.519Z,99709.69
2022-10-28T23:18:52.645Z,99718.47
2022-10-28T23:21:25.436Z,99756.53
2022-10-28T23:23:58.638Z,99719.16
2022-10-28T23:26:28.186Z,99720.03
2022-10-28T23:28:58.448Z,99695.38
2022-10-28T23:31:26.524Z,99718.47
2022-10-28T23:33:55.012Z,99691.53
2022-10-28T23:36:22.428Z,99722.53
2022-10-28T23:38:49.297Z,99666.19
2022-10-28T23:41:18.948Z,99692.38
2022-10-28T23:43:47.467Z,99711.84
2022-10-28T23:46:14.613Z,99691.97
2022-10-28T23:48:41.687Z,99655.19
2022-10-28T23:51:09.069Z,99634.50
2022-10-28T23:53:36.022Z,99661.47
2022-10-28T23:56:03.213Z,99673.78
2022-10-28T23:58:30.144Z,99684.13
